Skip Navigation Links Skip Navigation Links

Current Weather

Eastern Wv Regional/Shepherd, Martinsburg, W.V.

For information only: do not use for flight planning or navigation.
Latest weather
Observation time Wednesday, December 2, 2020 9:53 PM EST
Local time Wednesday, December 2, 2020 10:37 PM EST
Flight conditions Visual Meteorological Conditions
Winds
Wind speed calm
Visibility 10 mi.
Sky condition
Ceiling unlimited
Sky clear
Temperature 30°F
Dewpoint 19°F
Altimeter 30.23 in.Hg
Pressure change last 3 hours-0.02 in.Hg
Pressure rising more quickly
Derived measurements
Relative humidity 63%
Wind chill 30°F
Density altitude -1713 ft.
Sea-level pressure 30.24 in.Hg
Remarks
Automated weather observing station with precipitation discriminator.
METAR KMRB 030253Z 00000KT 10SM CLR M01/M07 A3023 RMK AO2 SLP242 T10111072 53007

Settings

Location code

InnerDrive.Weather 4.0.6770.0 Release CLR 4.0.30319.42000
Copyright ©2018 Inner Drive Technology. All rights reserved. Portions Copyright ©1986-2018 David Braverman.

Find weather

Site navigation


Skip Navigation Links

Place info

Page info

PayPal - The safer, easier way to pay online!

Return home.

Copyright ©2020 Inner Drive Technology. Purveyors of fine, hand-crafted computer software. Page printed 2020-12-03T03:37:05 UTC.